createdAt,value
2022-08-05T00:01:36.124Z,100.00
2022-08-05T00:04:19.555Z,100.00
2022-08-05T00:06:51.709Z,100.00
2022-08-05T00:09:20.248Z,100.00
2022-08-05T00:11:55.549Z,100.00
2022-08-05T00:14:29.037Z,100.00
2022-08-05T00:16:57.814Z,100.00
2022-08-05T00:19:33.459Z,100.00
2022-08-05T00:22:08.238Z,100.00
2022-08-05T00:24:42.452Z,100.00
2022-08-05T00:27:16.618Z,100.00
2022-08-05T00:29:44.918Z,100.00
2022-08-05T00:32:15.363Z,100.00
2022-08-05T00:35:03.701Z,100.00
2022-08-05T00:37:51.267Z,100.00
2022-08-05T00:40:27.506Z,100.00
2022-08-05T00:43:03.031Z,100.00
2022-08-05T00:45:42.756Z,100.00
2022-08-05T00:48:27.670Z,100.00
2022-08-05T00:50:58.914Z,100.00
2022-08-05T00:54:00.330Z,100.00
2022-08-05T00:56:17.205Z,100.00
2022-08-05T00:58:45.311Z,100.00
2022-08-05T01:01:15.408Z,100.00
2022-08-05T01:03:52.648Z,100.00
2022-08-05T01:06:20.299Z,100.00
2022-08-05T01:09:00.561Z,100.00
2022-08-05T01:11:37.829Z,100.00
2022-08-05T01:14:35.470Z,100.00
2022-08-05T01:17:09.733Z,100.00
2022-08-05T01:20:15.429Z,100.00
2022-08-05T01:23:15.136Z,100.00
2022-08-05T01:26:28.798Z,100.00
2022-08-05T01:29:05.313Z,100.00
2022-08-05T01:32:00.566Z,100.00
2022-08-05T01:35:10.956Z,100.00
2022-08-05T01:37:59.342Z,100.00
2022-08-05T01:40:30.845Z,100.00
2022-08-05T01:43:02.614Z,100.00
2022-08-05T01:45:34.729Z,100.00
2022-08-05T01:48:11.065Z,100.00
2022-08-05T01:50:41.158Z,100.00
2022-08-05T01:53:54.889Z,100.00
2022-08-05T01:56:13.965Z,100.00
2022-08-05T01:59:12.273Z,100.00
2022-08-05T02:01:43.018Z,100.00
2022-08-05T02:04:11.976Z,100.00
2022-08-05T02:06:39.854Z,100.00
2022-08-05T02:09:08.439Z,100.00
2022-08-05T02:11:52.605Z,100.00
2022-08-05T02:14:39.496Z,100.00
2022-08-05T02:18:31.993Z,100.00
2022-08-05T02:20:26.320Z,100.00
2022-08-05T02:23:08.712Z,100.00
2022-08-05T02:25:50.220Z,100.00
2022-08-05T02:28:28.483Z,100.00
2022-08-05T02:31:08.286Z,100.00
2022-08-05T02:33:57.495Z,100.00
2022-08-05T02:36:31.629Z,100.00
2022-08-05T02:39:02.242Z,100.00
2022-08-05T02:41:36.450Z,100.00
2022-08-05T02:44:21.992Z,100.00
2022-08-05T02:46:58.487Z,100.00
2022-08-05T02:49:35.797Z,100.00
2022-08-05T02:52:29.435Z,100.00
2022-08-05T02:55:02.078Z,100.00
2022-08-05T02:58:10.464Z,100.00
2022-08-05T03:00:24.784Z,100.00
2022-08-05T03:02:53.719Z,100.00
2022-08-05T03:05:21.951Z,100.00
2022-08-05T03:08:11.304Z,100.00
2022-08-05T03:10:39.002Z,100.00
2022-08-05T03:13:17.704Z,100.00
2022-08-05T03:15:47.348Z,100.00
2022-08-05T03:18:17.277Z,100.00
2022-08-05T03:20:48.736Z,100.00
2022-08-05T03:23:16.765Z,100.00
2022-08-05T03:26:03.623Z,100.00
2022-08-05T03:28:31.902Z,100.00
2022-08-05T03:31:04.164Z,100.00
2022-08-05T03:33:51.333Z,100.00
2022-08-05T03:36:30.293Z,100.00
2022-08-05T03:38:58.678Z,100.00
2022-08-05T03:41:26.065Z,100.00
2022-08-05T03:44:11.389Z,100.00
2022-08-05T03:46:39.375Z,100.00
2022-08-05T03:49:06.860Z,100.00
2022-08-05T03:52:37.588Z,100.00
2022-08-05T03:55:51.765Z,100.00
2022-08-05T03:57:48.806Z,100.00
2022-08-05T04:00:17.269Z,100.00
2022-08-05T04:02:57.719Z,100.00
2022-08-05T04:05:34.703Z,100.00
2022-08-05T04:08:14.633Z,100.00
2022-08-05T04:10:59.358Z,100.00
2022-08-05T04:13:51.035Z,100.00
2022-08-05T04:16:16.594Z,100.00
2022-08-05T04:18:54.768Z,100.00
2022-08-05T04:22:10.360Z,100.00
2022-08-05T04:24:18.672Z,100.00
2022-08-05T04:26:47.119Z,100.00
2022-08-05T04:29:14.426Z,100.00
2022-08-05T04:31:42.993Z,100.00
2022-08-05T04:34:32.968Z,100.00
2022-08-05T04:36:57.603Z,100.00
2022-08-05T04:39:24.971Z,100.00
2022-08-05T04:41:55.314Z,100.00
2022-08-05T04:44:29.256Z,100.00
2022-08-05T04:46:59.774Z,100.00
2022-08-05T04:49:38.522Z,100.00
2022-08-05T04:52:15.982Z,100.00
2022-08-05T04:54:43.262Z,100.00
2022-08-05T04:57:10.665Z,100.00
2022-08-05T04:59:40.489Z,100.00
2022-08-05T05:02:36.496Z,100.00
2022-08-05T05:05:02.771Z,100.00
2022-08-05T05:07:52.777Z,100.00
2022-08-05T05:10:20.333Z,100.00
2022-08-05T05:12:47.621Z,100.00
2022-08-05T05:15:57.576Z,100.00
2022-08-05T05:18:06.526Z,100.00
2022-08-05T05:20:36.233Z,100.00
2022-08-05T05:23:08.451Z,100.00
2022-08-05T05:25:47.843Z,100.00
2022-08-05T05:28:15.195Z,100.00
2022-08-05T05:30:43.033Z,100.00
2022-08-05T05:33:17.720Z,100.00
2022-08-05T05:35:50.841Z,100.00
2022-08-05T05:38:26.839Z,100.00
2022-08-05T05:40:56.883Z,100.00
2022-08-05T05:43:56.872Z,100.00
2022-08-05T05:46:15.624Z,100.00
2022-08-05T05:48:44.626Z,100.00
2022-08-05T05:51:27.871Z,100.00
2022-08-05T05:53:59.501Z,100.00
2022-08-05T05:56:32.407Z,100.00
2022-08-05T05:59:08.215Z,100.00
2022-08-05T06:01:40.704Z,100.00
2022-08-05T06:04:25.044Z,100.00
2022-08-05T06:06:52.498Z,100.00
2022-08-05T06:09:27.427Z,100.00
2022-08-05T06:12:09.534Z,100.00
2022-08-05T06:14:37.281Z,100.00
2022-08-05T06:17:24.365Z,100.00
2022-08-05T06:19:56.733Z,100.00
2022-08-05T06:22:34.365Z,100.00
2022-08-05T06:25:25.281Z,100.00
2022-08-05T06:28:10.999Z,100.00
2022-08-05T06:30:44.174Z,100.00
2022-08-05T06:33:11.450Z,100.00
2022-08-05T06:36:08.209Z,100.00
2022-08-05T06:38:36.558Z,100.00
2022-08-05T06:41:07.856Z,100.00
2022-08-05T06:43:58.581Z,100.00
2022-08-05T06:46:29.898Z,100.00
2022-08-05T06:49:01.201Z,100.00
2022-08-05T06:51:30.716Z,100.00
2022-08-05T06:54:01.833Z,100.00
2022-08-05T06:56:33.416Z,100.00
2022-08-05T06:59:08.386Z,100.00
2022-08-05T07:01:37.202Z,100.00
2022-08-05T07:04:08.261Z,100.00
2022-08-05T07:06:35.600Z,100.00
2022-08-05T07:09:04.772Z,100.00
2022-08-05T07:11:36.887Z,100.00
2022-08-05T07:14:29.694Z,100.00
2022-08-05T07:17:58.409Z,100.00
2022-08-05T07:20:32.190Z,100.00
2022-08-05T07:22:38.358Z,96.88
2022-08-05T07:25:23.803Z,95.77
2022-08-05T07:28:02.264Z,95.37
2022-08-05T07:30:38.893Z,97.24
2022-08-05T07:33:16.378Z,98.21
2022-08-05T07:36:05.388Z,96.49
2022-08-05T07:38:43.442Z,88.03
2022-08-05T07:42:12.864Z,91.30
2022-08-05T07:44:18.398Z,87.34
2022-08-05T07:46:49.740Z,85.67
2022-08-05T07:49:19.077Z,86.77
2022-08-05T07:51:53.591Z,87.66
2022-08-05T07:54:30.239Z,85.70
2022-08-05T07:57:22.456Z,84.85
2022-08-05T07:59:48.782Z,77.77
2022-08-05T08:02:17.836Z,78.67
2022-08-05T08:04:47.429Z,72.07
2022-08-05T08:07:15.412Z,74.64
2022-08-05T08:09:43.526Z,72.87
2022-08-05T08:12:32.004Z,72.24
2022-08-05T08:15:02.422Z,69.67
2022-08-05T08:17:32.830Z,67.30
2022-08-05T08:20:43.615Z,64.95
2022-08-05T08:22:56.978Z,62.55
2022-08-05T08:25:34.595Z,66.35
2022-08-05T08:28:18.945Z,64.12
2022-08-05T08:30:59.485Z,65.27
2022-08-05T08:33:28.281Z,65.21
2022-08-05T08:36:18.510Z,64.00
2022-08-05T08:38:42.842Z,60.92
2022-08-05T08:41:22.313Z,61.00
2022-08-05T08:45:19.287Z,62.98
2022-08-05T08:46:45.353Z,64.01
2022-08-05T08:50:22.826Z,62.16
2022-08-05T08:52:21.745Z,61.19
2022-08-05T08:54:55.287Z,60.02
2022-08-05T08:57:42.130Z,58.78
2022-08-05T09:00:15.740Z,59.59
2022-08-05T09:02:46.761Z,59.23
2022-08-05T09:05:17.399Z,59.40
2022-08-05T09:07:57.645Z,59.18
2022-08-05T09:10:26.980Z,59.80
2022-08-05T09:13:04.859Z,59.72
2022-08-05T09:15:36.766Z,58.06
2022-08-05T09:18:09.024Z,58.26
2022-08-05T09:20:38.386Z,59.58
2022-08-05T09:23:21.940Z,59.42
2022-08-05T09:26:01.630Z,60.03
2022-08-05T09:28:33.506Z,59.55
2022-08-05T09:31:43.286Z,58.03
2022-08-05T09:34:10.366Z,59.00
2022-08-05T09:36:55.667Z,58.75
2022-08-05T09:39:39.563Z,58.84
2022-08-05T09:42:23.919Z,61.03
2022-08-05T09:45:03.241Z,62.66
2022-08-05T09:47:47.984Z,60.87
2022-08-05T09:50:38.843Z,61.47
2022-08-05T09:53:08.909Z,58.22
2022-08-05T09:55:57.384Z,58.92
2022-08-05T09:58:29.149Z,60.00
2022-08-05T10:01:14.895Z,59.13
2022-08-05T10:04:34.861Z,58.51
2022-08-05T10:07:19.505Z,57.95
2022-08-05T10:10:04.308Z,57.77
2022-08-05T10:12:57.508Z,57.16
2022-08-05T10:15:34.536Z,56.82
2022-08-05T10:18:22.373Z,56.67
2022-08-05T10:21:11.960Z,55.09
2022-08-05T10:23:59.987Z,55.73
2022-08-05T10:26:31.589Z,55.19
2022-08-05T10:29:00.304Z,55.20
2022-08-05T10:32:53.843Z,54.96
2022-08-05T10:34:15.102Z,53.65
2022-08-05T10:36:45.161Z,52.52
2022-08-05T10:40:03.888Z,51.56
2022-08-05T10:42:33.310Z,52.90
2022-08-05T10:45:20.825Z,50.99
2022-08-05T10:48:29.835Z,51.73
2022-08-05T10:51:21.769Z,51.78
2022-08-05T10:53:58.512Z,51.55
2022-08-05T10:56:31.391Z,50.68
2022-08-05T10:58:58.662Z,49.08
2022-08-05T11:01:54.487Z,50.84
2022-08-05T11:04:31.023Z,50.50
2022-08-05T11:07:01.680Z,48.81
2022-08-05T11:10:03.816Z,48.63
2022-08-05T11:12:38.162Z,49.82
2022-08-05T11:16:01.172Z,48.75
2022-08-05T11:18:32.437Z,50.38
2022-08-05T11:21:02.010Z,48.38
2022-08-05T11:24:05.601Z,47.99
2022-08-05T11:26:38.647Z,46.18
2022-08-05T11:29:13.752Z,47.11
2022-08-05T11:31:54.212Z,46.09
2022-08-05T11:34:47.646Z,47.68
2022-08-05T11:38:30.467Z,45.05
2022-08-05T11:41:34.679Z,44.92
2022-08-05T11:44:08.076Z,45.67
2022-08-05T11:47:09.467Z,48.91
2022-08-05T11:49:33.952Z,45.32
2022-08-05T11:52:02.074Z,46.11
2022-08-05T11:54:40.309Z,46.54
2022-08-05T11:57:25.242Z,46.61
2022-08-05T11:59:55.095Z,43.59
2022-08-05T12:02:33.013Z,43.02
2022-08-05T12:05:08.088Z,43.27
2022-08-05T12:08:08.133Z,43.88
2022-08-05T12:10:45.133Z,43.38
2022-08-05T12:13:28.058Z,42.67
2022-08-05T12:16:15.384Z,45.37
2022-08-05T12:18:48.928Z,46.70
2022-08-05T12:21:32.007Z,46.06
2022-08-05T12:24:21.302Z,45.21
2022-08-05T12:26:54.127Z,43.90
2022-08-05T12:29:24.212Z,42.27
2022-08-05T12:32:02.040Z,42.35
2022-08-05T12:34:36.867Z,43.08
2022-08-05T12:37:16.923Z,43.26
2022-08-05T12:39:48.694Z,41.66
2022-08-05T12:42:21.367Z,42.17
2022-08-05T12:44:52.774Z,41.21
2022-08-05T12:47:31.059Z,42.47
2022-08-05T12:50:03.870Z,42.72
2022-08-05T12:52:39.246Z,46.70
2022-08-05T12:55:25.334Z,42.75
2022-08-05T12:58:51.005Z,40.08
2022-08-05T13:02:01.453Z,44.31
2022-08-05T13:03:41.968Z,40.34
2022-08-05T13:06:20.018Z,44.09
2022-08-05T13:08:52.316Z,40.11
2022-08-05T13:12:01.275Z,39.44
2022-08-05T13:14:36.107Z,39.20
2022-08-05T13:17:31.543Z,38.22
2022-08-05T13:20:12.504Z,37.29
2022-08-05T13:22:50.194Z,36.35
2022-08-05T13:25:22.179Z,36.23
2022-08-05T13:28:07.729Z,34.41
2022-08-05T13:30:38.922Z,34.15
2022-08-05T13:33:06.554Z,32.92
2022-08-05T13:35:47.624Z,31.00
2022-08-05T13:38:30.669Z,32.97
2022-08-05T13:41:03.764Z,33.03
2022-08-05T13:43:44.650Z,29.40
2022-08-05T13:46:30.655Z,29.88
2022-08-05T13:49:10.131Z,28.79
2022-08-05T13:51:46.558Z,29.38
2022-08-05T13:54:17.102Z,30.93
2022-08-05T13:56:51.115Z,32.28
2022-08-05T13:59:24.564Z,29.31
2022-08-05T14:02:00.022Z,28.86
2022-08-05T14:04:54.984Z,27.78
2022-08-05T14:08:01.223Z,27.40
2022-08-05T14:10:30.670Z,27.35
2022-08-05T14:12:59.401Z,26.60
2022-08-05T14:16:09.128Z,29.26
2022-08-05T14:18:18.641Z,26.95
2022-08-05T14:20:54.505Z,28.45
2022-08-05T14:23:24.687Z,29.51
2022-08-05T14:25:58.991Z,28.27
2022-08-05T14:28:28.692Z,25.81
2022-08-05T14:31:00.991Z,26.47
2022-08-05T14:33:56.387Z,25.72
2022-08-05T14:36:20.481Z,25.29
2022-08-05T14:38:50.673Z,25.93
2022-08-05T14:41:18.558Z,26.29
2022-08-05T14:44:01.473Z,28.37
2022-08-05T14:46:35.182Z,27.63
2022-08-05T14:49:07.492Z,26.49
2022-08-05T14:51:42.497Z,26.18
2022-08-05T14:54:27.501Z,27.62
2022-08-05T14:56:58.910Z,26.33
2022-08-05T14:59:29.621Z,25.06
2022-08-05T15:02:15.040Z,25.02
2022-08-05T15:04:43.788Z,24.09
2022-08-05T15:08:06.460Z,23.05
2022-08-05T15:10:01.365Z,21.80
2022-08-05T15:12:51.331Z,23.79
2022-08-05T15:15:17.926Z,23.51
2022-08-05T15:18:06.027Z,21.97
2022-08-05T15:20:33.829Z,22.09
2022-08-05T15:23:11.081Z,22.81
2022-08-05T15:25:52.839Z,20.29
2022-08-05T15:28:27.033Z,21.82
2022-08-05T15:30:55.521Z,23.03
2022-08-05T15:34:05.658Z,22.90
2022-08-05T15:36:16.803Z,19.98
2022-08-05T15:41:01.992Z,19.12
2022-08-05T15:41:56.455Z,21.24
2022-08-05T15:44:30.278Z,21.46
2022-08-05T15:47:01.509Z,21.23
2022-08-05T15:49:48.216Z,19.95
2022-08-05T15:52:52.045Z,20.55
2022-08-05T15:55:16.012Z,22.32
2022-08-05T15:57:45.109Z,23.03
2022-08-05T16:00:13.699Z,21.39
2022-08-05T16:02:44.592Z,20.90
2022-08-05T16:05:12.545Z,23.12
2022-08-05T16:07:46.205Z,24.78
2022-08-05T16:10:14.091Z,25.63
2022-08-05T16:12:42.113Z,24.78
2022-08-05T16:15:10.420Z,26.18
2022-08-05T16:17:49.727Z,27.34
2022-08-05T16:20:26.243Z,27.59
2022-08-05T16:22:55.468Z,29.24
2022-08-05T16:25:32.292Z,30.37
2022-08-05T16:28:06.004Z,29.51
2022-08-05T16:30:36.205Z,29.88
2022-08-05T16:33:03.997Z,29.80
2022-08-05T16:35:32.414Z,30.73
2022-08-05T16:38:24.585Z,30.96
2022-08-05T16:40:55.172Z,31.11
2022-08-05T16:43:32.070Z,31.55
2022-08-05T16:46:12.708Z,31.31
2022-08-05T16:48:50.799Z,31.25
2022-08-05T16:51:18.813Z,31.38
2022-08-05T16:54:04.738Z,32.01
2022-08-05T16:56:36.274Z,32.41
2022-08-05T16:59:09.079Z,33.37
2022-08-05T17:01:53.283Z,33.64
2022-08-05T17:04:28.234Z,34.08
2022-08-05T17:07:03.418Z,34.89
2022-08-05T17:09:55.988Z,35.04
2022-08-05T17:12:51.916Z,34.68
2022-08-05T17:15:15.793Z,35.27
2022-08-05T17:17:54.448Z,34.62
2022-08-05T17:20:22.554Z,34.73
2022-08-05T17:22:55.331Z,35.42
2022-08-05T17:25:33.884Z,34.84
2022-08-05T17:28:09.110Z,34.63
2022-08-05T17:30:42.392Z,34.75
2022-08-05T17:33:17.867Z,35.16
2022-08-05T17:36:08.111Z,35.68
2022-08-05T17:38:34.408Z,35.32
2022-08-05T17:41:02.369Z,35.20
2022-08-05T17:43:50.562Z,34.59
2022-08-05T17:46:18.281Z,34.09
2022-08-05T17:48:47.690Z,34.24
2022-08-05T17:51:21.784Z,33.52
2022-08-05T17:53:50.898Z,34.09
2022-08-05T17:56:22.772Z,34.40
2022-08-05T17:58:51.146Z,34.91
2022-08-05T18:01:19.841Z,35.00
2022-08-05T18:03:58.494Z,35.73
2022-08-05T18:06:31.633Z,36.56
2022-08-05T18:08:59.679Z,36.65
2022-08-05T18:11:33.003Z,37.05
2022-08-05T18:14:04.275Z,37.70
2022-08-05T18:16:47.038Z,38.06
2022-08-05T18:19:22.879Z,38.43
2022-08-05T18:22:09.354Z,38.93
2022-08-05T18:24:39.955Z,38.92
2022-08-05T18:27:12.604Z,38.63
2022-08-05T18:29:53.528Z,38.48
2022-08-05T18:32:28.179Z,40.10
2022-08-05T18:34:56.872Z,41.17
2022-08-05T18:37:34.065Z,43.01
2022-08-05T18:40:34.546Z,43.15
2022-08-05T18:42:56.961Z,45.25
2022-08-05T18:45:24.816Z,45.49
2022-08-05T18:47:56.740Z,45.17
2022-08-05T18:50:45.176Z,45.27
2022-08-05T18:53:19.154Z,43.88
2022-08-05T18:55:46.607Z,42.52
2022-08-05T18:58:16.364Z,42.40
2022-08-05T19:00:43.996Z,41.81
2022-08-05T19:03:15.535Z,42.15
2022-08-05T19:06:12.180Z,41.88
2022-08-05T19:08:31.252Z,42.29
2022-08-05T19:11:04.523Z,41.72
2022-08-05T19:13:35.700Z,42.20
2022-08-05T19:16:25.057Z,42.50
2022-08-05T19:18:53.525Z,43.85
2022-08-05T19:21:26.024Z,46.25
2022-08-05T19:24:06.054Z,48.45
2022-08-05T19:26:43.787Z,48.89
2022-08-05T19:29:22.923Z,51.40
2022-08-05T19:31:50.985Z,55.65
2022-08-05T19:34:18.863Z,59.24
2022-08-05T19:36:46.164Z,60.10
2022-08-05T19:39:14.669Z,60.94
2022-08-05T19:42:07.158Z,61.75
2022-08-05T19:44:32.094Z,60.64
2022-08-05T19:46:59.718Z,65.77
2022-08-05T19:49:27.031Z,68.26
2022-08-05T19:52:05.462Z,70.73
2022-08-05T19:54:37.214Z,72.21
2022-08-05T19:57:09.681Z,75.31
2022-08-05T20:00:02.128Z,78.79
2022-08-05T20:02:31.449Z,79.57
2022-08-05T20:04:59.771Z,82.31
2022-08-05T20:07:48.237Z,87.99
2022-08-05T20:10:19.447Z,89.46
2022-08-05T20:12:49.838Z,87.99
2022-08-05T20:15:23.261Z,88.53
2022-08-05T20:18:10.861Z,87.64
2022-08-05T20:20:57.153Z,90.97
2022-08-05T20:23:39.552Z,91.19
2022-08-05T20:26:16.547Z,91.11
2022-08-05T20:28:50.351Z,90.29
2022-08-05T20:31:21.609Z,90.73
2022-08-05T20:33:51.685Z,91.28
2022-08-05T20:36:21.790Z,92.74
2022-08-05T20:38:54.611Z,94.89
2022-08-05T20:41:44.040Z,93.67
2022-08-05T20:44:29.071Z,94.37
2022-08-05T20:47:01.045Z,100.00
2022-08-05T20:49:29.082Z,100.00
2022-08-05T20:51:58.021Z,100.00
2022-08-05T20:54:55.537Z,99.75
2022-08-05T20:57:42.678Z,100.00
2022-08-05T21:00:21.065Z,100.00
2022-08-05T21:02:57.708Z,100.00
2022-08-05T21:05:25.166Z,100.00
2022-08-05T21:07:52.587Z,100.00
2022-08-05T21:10:21.560Z,100.00
2022-08-05T21:12:58.039Z,100.00
2022-08-05T21:15:36.800Z,100.00
2022-08-05T21:18:04.603Z,100.00
2022-08-05T21:20:32.758Z,100.00
2022-08-05T21:23:00.679Z,100.00
2022-08-05T21:25:33.807Z,100.00
2022-08-05T21:28:03.232Z,100.00
2022-08-05T21:30:31.578Z,100.00
2022-08-05T21:32:59.727Z,100.00
2022-08-05T21:35:56.020Z,100.00
2022-08-05T21:38:19.131Z,100.00
2022-08-05T21:40:46.382Z,100.00
2022-08-05T21:43:17.711Z,100.00
2022-08-05T21:45:57.453Z,100.00
2022-08-05T21:48:28.949Z,100.00
2022-08-05T21:50:59.723Z,100.00
2022-08-05T21:53:27.832Z,100.00
2022-08-05T21:56:05.896Z,100.00
2022-08-05T21:58:57.081Z,100.00
2022-08-05T22:01:26.451Z,100.00
2022-08-05T22:03:54.052Z,100.00
2022-08-05T22:06:36.972Z,100.00
2022-08-05T22:09:13.375Z,100.00
2022-08-05T22:11:47.074Z,100.00
2022-08-05T22:14:33.698Z,100.00
2022-08-05T22:17:04.971Z,100.00
2022-08-05T22:20:00.832Z,100.00
2022-08-05T22:22:27.375Z,100.00
2022-08-05T22:25:24.000Z,100.00
2022-08-05T22:28:09.109Z,100.00
2022-08-05T22:30:43.951Z,100.00
2022-08-05T22:33:57.228Z,100.00
2022-08-05T22:36:14.890Z,100.00
2022-08-05T22:38:48.082Z,100.00
2022-08-05T22:41:26.369Z,100.00
2022-08-05T22:44:08.611Z,100.00
2022-08-05T22:46:39.884Z,100.00
2022-08-05T22:49:23.643Z,100.00
2022-08-05T22:52:04.811Z,100.00
2022-08-05T22:54:36.566Z,100.00
2022-08-05T22:57:06.528Z,100.00
2022-08-05T22:59:48.520Z,100.00
2022-08-05T23:02:29.463Z,100.00
2022-08-05T23:05:01.910Z,100.00
2022-08-05T23:07:43.757Z,100.00
2022-08-05T23:10:14.157Z,100.00
2022-08-05T23:12:43.785Z,100.00
2022-08-05T23:15:12.047Z,100.00
2022-08-05T23:18:01.458Z,100.00
2022-08-05T23:20:26.840Z,100.00
2022-08-05T23:22:55.815Z,100.00
2022-08-05T23:25:52.569Z,100.00
2022-08-05T23:28:12.809Z,100.00
2022-08-05T23:30:44.027Z,100.00
2022-08-05T23:33:26.466Z,100.00
2022-08-05T23:36:10.805Z,100.00
2022-08-05T23:38:42.849Z,100.00
2022-08-05T23:41:11.267Z,100.00
2022-08-05T23:44:04.737Z,100.00
2022-08-05T23:46:26.203Z,100.00
2022-08-05T23:49:00.035Z,100.00
2022-08-05T23:51:55.035Z,100.00
2022-08-05T23:54:30.220Z,100.00
2022-08-05T23:57:03.741Z,100.00
